sensor_id;sensor_type;location;lat;lon;timestamp;pressure;altitude;pressure_sealevel;temperature;humidity
30347;BME280;19047;44.782;20.468;2022-08-24T00:00:20;100768.63;;;21.17;89.39
30347;BME280;19047;44.782;20.468;2022-08-24T00:03:38;100780.34;;;21.19;89.46
30347;BME280;19047;44.782;20.468;2022-08-24T00:07:09;100748.81;;;20.99;89.56
30347;BME280;19047;44.782;20.468;2022-08-24T00:10:27;100760.25;;;21.13;89.46
30347;BME280;19047;44.782;20.468;2022-08-24T00:13:57;100732.72;;;20.96;89.46
30347;BME280;19047;44.782;20.468;2022-08-24T00:17:16;100757.78;;;21.06;89.39
30347;BME280;19047;44.782;20.468;2022-08-24T00:20:46;100767.44;;;21.00;89.58
30347;BME280;19047;44.782;20.468;2022-08-24T00:24:06;100752.81;;;20.92;89.59
30347;BME280;19047;44.782;20.468;2022-08-24T00:27:39;100761.34;;;20.92;89.59
30347;BME280;19047;44.782;20.468;2022-08-24T00:30:57;100756.81;;;20.86;89.59
30347;BME280;19047;44.782;20.468;2022-08-24T00:34:27;100761.72;;;20.85;89.75
30347;BME280;19047;44.782;20.468;2022-08-24T00:37:47;100761.09;;;20.81;89.73
30347;BME280;19047;44.782;20.468;2022-08-24T00:41:18;100766.16;;;20.77;89.82
30347;BME280;19047;44.782;20.468;2022-08-24T00:44:35;100758.84;;;20.61;89.98
30347;BME280;19047;44.782;20.468;2022-08-24T00:48:12;100776.63;;;20.71;89.98
30347;BME280;19047;44.782;20.468;2022-08-24T00:51:45;100790.25;;;20.67;90.02
30347;BME280;19047;44.782;20.468;2022-08-24T00:55:25;100783.75;;;20.66;90.28
30347;BME280;19047;44.782;20.468;2022-08-24T00:58:49;100782.22;;;20.65;90.26
30347;BME280;19047;44.782;20.468;2022-08-24T01:02:29;100783.16;;;20.62;90.28
30347;BME280;19047;44.782;20.468;2022-08-24T01:05:47;100769.59;;;20.57;90.36
30347;BME280;19047;44.782;20.468;2022-08-24T01:09:17;100781.91;;;20.63;90.56
30347;BME280;19047;44.782;20.468;2022-08-24T01:12:40;100760.94;;;20.52;90.51
30347;BME280;19047;44.782;20.468;2022-08-24T01:16:13;100788.38;;;20.64;90.53
30347;BME280;19047;44.782;20.468;2022-08-24T01:19:54;100795.13;;;20.66;90.71
30347;BME280;19047;44.782;20.468;2022-08-24T01:23:44;100802.41;;;20.67;90.84
30347;BME280;19047;44.782;20.468;2022-08-24T01:27:03;100797.19;;;20.66;90.88
30347;BME280;19047;44.782;20.468;2022-08-24T01:30:38;100798.97;;;20.63;90.86
30347;BME280;19047;44.782;20.468;2022-08-24T01:33:55;100791.22;;;20.64;90.87
30347;BME280;19047;44.782;20.468;2022-08-24T01:37:25;100793.41;;;20.69;90.95
30347;BME280;19047;44.782;20.468;2022-08-24T01:40:52;100803.81;;;20.72;91.05
30347;BME280;19047;44.782;20.468;2022-08-24T01:44:26;100812.34;;;20.72;91.17
30347;BME280;19047;44.782;20.468;2022-08-24T01:47:44;100817.88;;;20.75;91.00
30347;BME280;19047;44.782;20.468;2022-08-24T01:51:14;100806.03;;;20.68;91.21
30347;BME280;19047;44.782;20.468;2022-08-24T01:54:32;100829.53;;;20.77;91.25
30347;BME280;19047;44.782;20.468;2022-08-24T01:58:04;100825.91;;;20.77;91.11
30347;BME280;19047;44.782;20.468;2022-08-24T02:01:26;100828.09;;;20.82;91.23
30347;BME280;19047;44.782;20.468;2022-08-24T02:04:58;100828.88;;;20.83;91.33
30347;BME280;19047;44.782;20.468;2022-08-24T02:08:15;100811.41;;;20.75;91.24
30347;BME280;19047;44.782;20.468;2022-08-24T02:11:47;100824.59;;;20.87;91.17
30347;BME280;19047;44.782;20.468;2022-08-24T02:15:07;100822.53;;;20.88;91.42
30347;BME280;19047;44.782;20.468;2022-08-24T02:18:38;100800.81;;;20.75;91.38
30347;BME280;19047;44.782;20.468;2022-08-24T02:21:59;100819.81;;;20.93;91.16
30347;BME280;19047;44.782;20.468;2022-08-24T02:25:29;100822.34;;;20.91;91.29
30347;BME280;19047;44.782;20.468;2022-08-24T02:28:47;100802.19;;;20.80;91.20
30347;BME280;19047;44.782;20.468;2022-08-24T02:32:17;100804.06;;;20.83;91.24
30347;BME280;19047;44.782;20.468;2022-08-24T02:35:34;100798.06;;;20.81;91.23
30347;BME280;19047;44.782;20.468;2022-08-24T02:39:06;100832.31;;;20.96;91.27
30347;BME280;19047;44.782;20.468;2022-08-24T02:42:23;100823.75;;;20.96;91.22
30347;BME280;19047;44.782;20.468;2022-08-24T02:45:55;100827.69;;;20.98;91.34
30347;BME280;19047;44.782;20.468;2022-08-24T02:49:13;100826.91;;;20.98;91.02
30347;BME280;19047;44.782;20.468;2022-08-24T02:52:45;100808.81;;;20.86;91.28
30347;BME280;19047;44.782;20.468;2022-08-24T02:56:03;100831.16;;;21.02;91.21
30347;BME280;19047;44.782;20.468;2022-08-24T02:59:33;100829.41;;;21.05;91.31
30347;BME280;19047;44.782;20.468;2022-08-24T03:02:51;100819.44;;;21.00;91.28
30347;BME280;19047;44.782;20.468;2022-08-24T03:06:24;100826.56;;;21.05;91.27
30347;BME280;19047;44.782;20.468;2022-08-24T03:09:41;100826.06;;;21.06;91.13
30347;BME280;19047;44.782;20.468;2022-08-24T03:13:12;100824.81;;;21.07;91.19
30347;BME280;19047;44.782;20.468;2022-08-24T03:16:30;100815.03;;;20.99;91.42
30347;BME280;19047;44.782;20.468;2022-08-24T03:20:02;100818.19;;;21.01;91.22
30347;BME280;19047;44.782;20.468;2022-08-24T03:23:21;100825.88;;;21.10;91.30
30347;BME280;19047;44.782;20.468;2022-08-24T03:26:51;100833.44;;;21.13;91.30
30347;BME280;19047;44.782;20.468;2022-08-24T03:30:10;100834.56;;;21.16;91.45
30347;BME280;19047;44.782;20.468;2022-08-24T03:33:42;100821.28;;;21.12;91.35
30347;BME280;19047;44.782;20.468;2022-08-24T03:36:59;100831.69;;;21.16;91.33
30347;BME280;19047;44.782;20.468;2022-08-24T03:40:31;100823.66;;;21.14;91.29
30347;BME280;19047;44.782;20.468;2022-08-24T03:43:49;100818.44;;;21.12;91.57
30347;BME280;19047;44.782;20.468;2022-08-24T03:47:18;100799.53;;;21.00;91.73
30347;BME280;19047;44.782;20.468;2022-08-24T03:50:39;100803.31;;;21.06;91.77
30347;BME280;19047;44.782;20.468;2022-08-24T03:54:12;100793.19;;;21.05;91.74
30347;BME280;19047;44.782;20.468;2022-08-24T03:57:28;100805.16;;;21.09;91.97
30347;BME280;19047;44.782;20.468;2022-08-24T04:01:04;100797.94;;;21.08;91.85
30347;BME280;19047;44.782;20.468;2022-08-24T04:04:26;100796.34;;;21.07;92.02
30347;BME280;19047;44.782;20.468;2022-08-24T04:07:59;100782.03;;;20.93;92.09
30347;BME280;19047;44.782;20.468;2022-08-24T04:11:21;100813.91;;;21.06;92.24
30347;BME280;19047;44.782;20.468;2022-08-24T04:14:52;100810.44;;;21.02;92.15
30347;BME280;19047;44.782;20.468;2022-08-24T04:18:12;100788.69;;;20.90;92.13
30347;BME280;19047;44.782;20.468;2022-08-24T04:21:43;100805.75;;;20.90;92.22
30347;BME280;19047;44.782;20.468;2022-08-24T04:25:05;100817.88;;;20.99;92.25
30347;BME280;19047;44.782;20.468;2022-08-24T04:28:36;100818.66;;;21.00;92.35
30347;BME280;19047;44.782;20.468;2022-08-24T04:31:57;100825.44;;;21.02;92.24
30347;BME280;19047;44.782;20.468;2022-08-24T04:35:28;100820.25;;;21.01;92.29
30347;BME280;19047;44.782;20.468;2022-08-24T04:38:47;100827.34;;;21.05;92.44
30347;BME280;19047;44.782;20.468;2022-08-24T04:42:43;100805.28;;;20.91;92.51
30347;BME280;19047;44.782;20.468;2022-08-24T04:46:06;100821.66;;;21.05;92.51
30347;BME280;19047;44.782;20.468;2022-08-24T04:49:39;100825.59;;;21.08;92.40
30347;BME280;19047;44.782;20.468;2022-08-24T04:52:56;100818.63;;;21.09;92.50
30347;BME280;19047;44.782;20.468;2022-08-24T04:56:27;100824.59;;;21.11;92.61
30347;BME280;19047;44.782;20.468;2022-08-24T04:59:45;100796.88;;;20.97;92.63
30347;BME280;19047;44.782;20.468;2022-08-24T05:03:16;100806.00;;;21.01;92.57
30347;BME280;19047;44.782;20.468;2022-08-24T05:06:35;100820.19;;;21.19;92.68
30347;BME280;19047;44.782;20.468;2022-08-24T05:10:07;100821.72;;;21.20;92.56
30347;BME280;19047;44.782;20.468;2022-08-24T05:13:23;100827.25;;;21.24;92.76
30347;BME280;19047;44.782;20.468;2022-08-24T05:16:53;100829.91;;;21.27;92.71
30347;BME280;19047;44.782;20.468;2022-08-24T05:20:10;100824.03;;;21.31;92.64
30347;BME280;19047;44.782;20.468;2022-08-24T05:23:42;100826.38;;;21.32;92.56
30347;BME280;19047;44.782;20.468;2022-08-24T05:26:59;100806.53;;;21.23;92.53
30347;BME280;19047;44.782;20.468;2022-08-24T05:30:28;100831.44;;;21.37;92.62
30347;BME280;19047;44.782;20.468;2022-08-24T05:33:46;100832.03;;;21.41;92.67
30347;BME280;19047;44.782;20.468;2022-08-24T05:37:16;100837.22;;;21.43;92.59
30347;BME280;19047;44.782;20.468;2022-08-24T05:40:51;100832.09;;;21.32;92.75
30347;BME280;19047;44.782;20.468;2022-08-24T05:44:25;100846.88;;;21.45;92.65
30347;BME280;19047;44.782;20.468;2022-08-24T05:47:44;100845.59;;;21.46;92.42
30347;BME280;19047;44.782;20.468;2022-08-24T05:51:39;100859.84;;;21.46;92.54
30347;BME280;19047;44.782;20.468;2022-08-24T05:55:01;100859.34;;;21.48;92.62
30347;BME280;19047;44.782;20.468;2022-08-24T05:58:33;100857.28;;;21.48;92.44
30347;BME280;19047;44.782;20.468;2022-08-24T06:01:49;100863.28;;;21.51;92.63
30347;BME280;19047;44.782;20.468;2022-08-24T06:05:19;100840.28;;;21.39;92.50
30347;BME280;19047;44.782;20.468;2022-08-24T06:08:42;100864.06;;;21.51;92.62
30347;BME280;19047;44.782;20.468;2022-08-24T06:12:14;100866.72;;;21.55;92.61
30347;BME280;19047;44.782;20.468;2022-08-24T06:15:46;100863.28;;;21.51;92.32
30347;BME280;19047;44.782;20.468;2022-08-24T06:19:05;100856.81;;;21.50;92.35
30347;BME280;19047;44.782;20.468;2022-08-24T06:22:58;100866.84;;;21.60;92.47
30347;BME280;19047;44.782;20.468;2022-08-24T06:26:20;100857.03;;;21.61;92.33
30347;BME280;19047;44.782;20.468;2022-08-24T06:30:10;100856.84;;;21.65;92.58
30347;BME280;19047;44.782;20.468;2022-08-24T06:33:28;100844.38;;;21.62;92.68
30347;BME280;19047;44.782;20.468;2022-08-24T06:36:57;100833.94;;;21.59;92.24
30347;BME280;19047;44.782;20.468;2022-08-24T06:40:16;100853.44;;;21.75;92.55
30347;BME280;19047;44.782;20.468;2022-08-24T06:43:48;100858.47;;;21.80;92.50
30347;BME280;19047;44.782;20.468;2022-08-24T06:47:09;100860.03;;;21.81;92.22
30347;BME280;19047;44.782;20.468;2022-08-24T06:50:45;100846.16;;;21.74;92.41
30347;BME280;19047;44.782;20.468;2022-08-24T06:54:03;100842.81;;;21.76;92.33
30347;BME280;19047;44.782;20.468;2022-08-24T06:57:33;100858.97;;;21.94;92.46
30347;BME280;19047;44.782;20.468;2022-08-24T07:00:51;100849.94;;;21.95;91.89
30347;BME280;19047;44.782;20.468;2022-08-24T07:04:23;100839.53;;;21.92;92.15
30347;BME280;19047;44.782;20.468;2022-08-24T07:08:07;100850.78;;;22.10;92.22
30347;BME280;19047;44.782;20.468;2022-08-24T07:11:39;100854.53;;;22.16;91.99
30347;BME280;19047;44.782;20.468;2022-08-24T07:14:57;100859.03;;;22.23;92.15
30347;BME280;19047;44.782;20.468;2022-08-24T07:18:28;100858.63;;;22.30;92.07
30347;BME280;19047;44.782;20.468;2022-08-24T07:21:45;100845.97;;;22.16;91.95
30347;BME280;19047;44.782;20.468;2022-08-24T07:25:16;100877.03;;;22.44;91.68
30347;BME280;19047;44.782;20.468;2022-08-24T07:28:34;100886.47;;;22.50;91.36
30347;BME280;19047;44.782;20.468;2022-08-24T07:32:04;100883.91;;;22.52;91.28
30347;BME280;19047;44.782;20.468;2022-08-24T07:35:25;100893.13;;;22.62;91.13
30347;BME280;19047;44.782;20.468;2022-08-24T07:38:57;100895.81;;;22.65;91.16
30347;BME280;19047;44.782;20.468;2022-08-24T07:42:18;100892.69;;;22.78;90.85
30347;BME280;19047;44.782;20.468;2022-08-24T07:45:51;100883.50;;;22.88;90.64
30347;BME280;19047;44.782;20.468;2022-08-24T07:49:10;100872.69;;;22.92;90.61
30347;BME280;19047;44.782;20.468;2022-08-24T07:52:42;100869.63;;;22.96;90.40
30347;BME280;19047;44.782;20.468;2022-08-24T07:56:00;100875.09;;;23.14;90.27
30347;BME280;19047;44.782;20.468;2022-08-24T07:59:35;100886.44;;;23.29;89.97
30347;BME280;19047;44.782;20.468;2022-08-24T08:02:52;100889.47;;;23.40;90.12
30347;BME280;19047;44.782;20.468;2022-08-24T08:06:27;100885.50;;;23.52;89.72
30347;BME280;19047;44.782;20.468;2022-08-24T08:09:45;100887.22;;;23.64;89.71
30347;BME280;19047;44.782;20.468;2022-08-24T08:13:16;100892.59;;;23.77;89.47
30347;BME280;19047;44.782;20.468;2022-08-24T08:16:33;100896.56;;;23.85;89.44
30347;BME280;19047;44.782;20.468;2022-08-24T08:20:07;100893.75;;;23.91;88.83
30347;BME280;19047;44.782;20.468;2022-08-24T08:23:25;100901.19;;;24.03;88.51
30347;BME280;19047;44.782;20.468;2022-08-24T08:27:21;100898.63;;;24.05;88.23
30347;BME280;19047;44.782;20.468;2022-08-24T08:30:45;100905.44;;;24.13;88.07
30347;BME280;19047;44.782;20.468;2022-08-24T08:34:15;100912.25;;;24.16;87.99
30347;BME280;19047;44.782;20.468;2022-08-24T08:37:33;100887.97;;;24.06;87.85
30347;BME280;19047;44.782;20.468;2022-08-24T08:45:37;100917.81;;;24.25;86.62
30347;BME280;19047;44.782;20.468;2022-08-24T08:53:48;100919.19;;;24.29;86.76
30347;BME280;19047;44.782;20.468;2022-08-24T09:01:22;100921.59;;;24.36;86.79
30347;BME280;19047;44.782;20.468;2022-08-24T09:56:04;100937.78;;;24.71;84.64
30347;BME280;19047;44.782;20.468;2022-08-24T10:11:24;100920.22;;;24.84;83.98
30347;BME280;19047;44.782;20.468;2022-08-24T10:15:13;100921.91;;;24.96;84.30
30347;BME280;19047;44.782;20.468;2022-08-24T10:19:02;100925.66;;;25.07;83.63
30347;BME280;19047;44.782;20.468;2022-08-24T10:26:38;100923.03;;;25.46;83.50
30347;BME280;19047;44.782;20.468;2022-08-24T10:38:21;100925.44;;;26.18;82.09
30347;BME280;19047;44.782;20.468;2022-08-24T10:42:36;100936.00;;;26.55;81.68
30347;BME280;19047;44.782;20.468;2022-08-24T10:46:50;100932.63;;;26.90;81.07
30347;BME280;19047;44.782;20.468;2022-08-24T10:50:27;100924.81;;;27.13;80.72
30347;BME280;19047;44.782;20.468;2022-08-24T10:54:02;100925.28;;;27.39;80.82
30347;BME280;19047;44.782;20.468;2022-08-24T10:57:34;100923.94;;;27.63;79.24
30347;BME280;19047;44.782;20.468;2022-08-24T11:04:33;100918.78;;;28.02;79.27
30347;BME280;19047;44.782;20.468;2022-08-24T11:08:07;100925.16;;;28.36;77.01
30347;BME280;19047;44.782;20.468;2022-08-24T11:11:36;100926.06;;;28.61;77.05
30347;BME280;19047;44.782;20.468;2022-08-24T11:18:48;100945.59;;;29.09;74.94
30347;BME280;19047;44.782;20.468;2022-08-24T11:22:37;100933.06;;;29.31;74.16
30347;BME280;19047;44.782;20.468;2022-08-24T11:26:03;100928.19;;;29.50;74.21
30347;BME280;19047;44.782;20.468;2022-08-24T11:33:34;100920.47;;;29.58;72.17
30347;BME280;19047;44.782;20.468;2022-08-24T11:37:15;100938.91;;;29.74;73.14
30347;BME280;19047;44.782;20.468;2022-08-24T11:40:39;100942.50;;;29.80;72.30
30347;BME280;19047;44.782;20.468;2022-08-24T11:51:29;100931.59;;;29.92;70.64
30347;BME280;19047;44.782;20.468;2022-08-24T11:55:07;100935.28;;;29.92;70.05
30347;BME280;19047;44.782;20.468;2022-08-24T12:18:03;100926.03;;;29.99;69.04
30347;BME280;19047;44.782;20.468;2022-08-24T12:21:02;100927.09;;;29.96;69.40
30347;BME280;19047;44.782;20.468;2022-08-24T12:24:40;100931.06;;;29.93;68.86
30347;BME280;19047;44.782;20.468;2022-08-24T12:28:20;100913.91;;;29.82;68.98
30347;BME280;19047;44.782;20.468;2022-08-24T12:31:45;100926.69;;;29.87;69.20
30347;BME280;19047;44.782;20.468;2022-08-24T12:35:55;100917.16;;;29.73;68.16
30347;BME280;19047;44.782;20.468;2022-08-24T12:39:19;100934.47;;;29.73;69.41
30347;BME280;19047;44.782;20.468;2022-08-24T12:46:25;100926.53;;;29.55;69.73
30347;BME280;19047;44.782;20.468;2022-08-24T12:50:06;100936.28;;;29.52;68.46
30347;BME280;19047;44.782;20.468;2022-08-24T12:53:53;100927.66;;;29.52;69.08
30347;BME280;19047;44.782;20.468;2022-08-24T13:01:06;100932.91;;;29.48;69.55
30347;BME280;19047;44.782;20.468;2022-08-24T13:08:31;100931.53;;;29.54;68.41
30347;BME280;19047;44.782;20.468;2022-08-24T13:15:59;100930.94;;;29.61;69.75
30347;BME280;19047;44.782;20.468;2022-08-24T13:19:40;100926.03;;;29.75;68.08
30347;BME280;19047;44.782;20.468;2022-08-24T13:26:41;100906.31;;;29.79;67.58
30347;BME280;19047;44.782;20.468;2022-08-24T13:30:15;100920.59;;;29.96;67.29
30347;BME280;19047;44.782;20.468;2022-08-24T13:37:32;100912.69;;;29.96;67.96
30347;BME280;19047;44.782;20.468;2022-08-24T13:56:28;100904.53;;;29.76;66.41
30347;BME280;19047;44.782;20.468;2022-08-24T14:03:39;100890.63;;;29.56;66.52
30347;BME280;19047;44.782;20.468;2022-08-24T14:07:19;100900.66;;;29.49;67.58
30347;BME280;19047;44.782;20.468;2022-08-24T14:18:41;100875.31;;;29.18;67.36
30347;BME280;19047;44.782;20.468;2022-08-24T14:25:43;100891.22;;;29.24;67.69
30347;BME280;19047;44.782;20.468;2022-08-24T14:36:22;100882.56;;;29.24;68.14
30347;BME280;19047;44.782;20.468;2022-08-24T14:40:19;100882.03;;;29.26;67.79
30347;BME280;19047;44.782;20.468;2022-08-24T14:47:41;100884.38;;;29.27;67.12
30347;BME280;19047;44.782;20.468;2022-08-24T15:09:58;100877.16;;;28.55;68.06
30347;BME280;19047;44.782;20.468;2022-08-24T15:17:16;100857.50;;;28.24;68.66
30347;BME280;19047;44.782;20.468;2022-08-24T15:27:57;100859.53;;;27.82;68.98
30347;BME280;19047;44.782;20.468;2022-08-24T15:31:28;100846.31;;;27.68;69.30
30347;BME280;19047;44.782;20.468;2022-08-24T15:34:52;100844.50;;;27.59;69.16
30347;BME280;19047;44.782;20.468;2022-08-24T15:41:44;100845.59;;;27.45;70.56
30347;BME280;19047;44.782;20.468;2022-08-24T15:45:14;100846.13;;;27.38;69.73
30347;BME280;19047;44.782;20.468;2022-08-24T15:48:31;100846.66;;;27.31;70.32
30347;BME280;19047;44.782;20.468;2022-08-24T15:52:05;100842.00;;;27.22;69.83
30347;BME280;19047;44.782;20.468;2022-08-24T15:55:34;100847.47;;;27.20;70.91
30347;BME280;19047;44.782;20.468;2022-08-24T15:59:09;100834.19;;;27.06;70.37
30347;BME280;19047;44.782;20.468;2022-08-24T16:02:28;100842.03;;;27.11;71.15
30347;BME280;19047;44.782;20.468;2022-08-24T16:09:40;100826.13;;;26.88;71.88
30347;BME280;19047;44.782;20.468;2022-08-24T16:16:42;100838.38;;;26.88;71.70
30347;BME280;19047;44.782;20.468;2022-08-24T16:23:43;100832.13;;;26.79;72.11
30347;BME280;19047;44.782;20.468;2022-08-24T16:27:15;100835.53;;;26.72;71.97
30347;BME280;19047;44.782;20.468;2022-08-24T16:30:51;100837.34;;;26.64;71.85
30347;BME280;19047;44.782;20.468;2022-08-24T16:34:29;100845.19;;;26.58;72.32
30347;BME280;19047;44.782;20.468;2022-08-24T16:37:50;100850.16;;;26.51;72.92
30347;BME280;19047;44.782;20.468;2022-08-24T16:41:23;100833.19;;;26.31;72.83
30347;BME280;19047;44.782;20.468;2022-08-24T16:44:41;100861.09;;;26.36;72.90
30347;BME280;19047;44.782;20.468;2022-08-24T16:48:13;100856.41;;;26.28;72.97
30347;BME280;19047;44.782;20.468;2022-08-24T16:51:30;100862.09;;;26.16;73.42
30347;BME280;19047;44.782;20.468;2022-08-24T16:55:00;100847.47;;;26.03;73.12
30347;BME280;19047;44.782;20.468;2022-08-24T16:58:33;100861.25;;;25.99;73.52
30347;BME280;19047;44.782;20.468;2022-08-24T17:01:53;100866.44;;;25.90;73.75
30347;BME280;19047;44.782;20.468;2022-08-24T17:05:24;100870.84;;;25.74;73.65
30347;BME280;19047;44.782;20.468;2022-08-24T17:08:42;100870.53;;;25.66;74.36
30347;BME280;19047;44.782;20.468;2022-08-24T17:12:14;100847.69;;;25.35;74.26
30347;BME280;19047;44.782;20.468;2022-08-24T17:15:31;100858.88;;;25.33;74.70
30347;BME280;19047;44.782;20.468;2022-08-24T17:19:07;100847.56;;;25.13;74.85
30347;BME280;19047;44.782;20.468;2022-08-24T17:22:26;100873.41;;;25.18;75.36
30347;BME280;19047;44.782;20.468;2022-08-24T17:25:57;100869.41;;;25.04;75.42
30347;BME280;19047;44.782;20.468;2022-08-24T17:29:15;100878.19;;;24.95;75.79
30347;BME280;19047;44.782;20.468;2022-08-24T17:32:50;100879.38;;;24.83;76.02
30347;BME280;19047;44.782;20.468;2022-08-24T17:36:08;100889.16;;;24.71;76.34
30347;BME280;19047;44.782;20.468;2022-08-24T17:39:39;100887.69;;;24.55;76.54
30347;BME280;19047;44.782;20.468;2022-08-24T17:42:57;100895.97;;;24.48;76.62
30347;BME280;19047;44.782;20.468;2022-08-24T17:46:28;100898.44;;;24.34;76.66
30347;BME280;19047;44.782;20.468;2022-08-24T17:49:46;100912.91;;;24.25;77.01
30347;BME280;19047;44.782;20.468;2022-08-24T17:53:17;100911.63;;;24.06;77.33
30347;BME280;19047;44.782;20.468;2022-08-24T17:56:35;100929.28;;;24.05;77.52
30347;BME280;19047;44.782;20.468;2022-08-24T18:00:12;100919.63;;;23.82;77.84
30347;BME280;19047;44.782;20.468;2022-08-24T18:03:36;100922.84;;;23.69;78.16
30347;BME280;19047;44.782;20.468;2022-08-24T18:07:10;100944.50;;;23.76;78.28
30347;BME280;19047;44.782;20.468;2022-08-24T18:10:29;100937.50;;;23.56;78.82
30347;BME280;19047;44.782;20.468;2022-08-24T18:14:02;100932.16;;;23.49;78.77
30347;BME280;19047;44.782;20.468;2022-08-24T18:17:31;100959.28;;;23.54;78.86
30347;BME280;19047;44.782;20.468;2022-08-24T18:21:03;100938.94;;;23.32;79.16
30347;BME280;19047;44.782;20.468;2022-08-24T18:24:22;100956.41;;;23.39;79.24
30347;BME280;19047;44.782;20.468;2022-08-24T18:27:56;100958.41;;;23.33;79.39
30347;BME280;19047;44.782;20.468;2022-08-24T18:31:14;100955.47;;;23.27;79.80
30347;BME280;19047;44.782;20.468;2022-08-24T18:34:46;100947.53;;;23.17;80.07
30347;BME280;19047;44.782;20.468;2022-08-24T18:38:03;100962.50;;;23.12;80.14
30347;BME280;19047;44.782;20.468;2022-08-24T18:41:37;100960.63;;;23.09;80.42
30347;BME280;19047;44.782;20.468;2022-08-24T18:44:55;100945.00;;;22.89;80.70
30347;BME280;19047;44.782;20.468;2022-08-24T18:48:26;100951.69;;;22.86;80.82
30347;BME280;19047;44.782;20.468;2022-08-24T18:55:15;100969.13;;;22.88;81.40
30347;BME280;19047;44.782;20.468;2022-08-24T18:58:35;100960.97;;;22.81;81.60
30347;BME280;19047;44.782;20.468;2022-08-24T19:02:21;100962.31;;;22.71;81.64
30347;BME280;19047;44.782;20.468;2022-08-24T19:05:48;100958.25;;;22.63;81.80
30347;BME280;19047;44.782;20.468;2022-08-24T19:09:19;100970.47;;;22.64;81.96
30347;BME280;19047;44.782;20.468;2022-08-24T19:12:39;100987.38;;;22.67;81.80
30347;BME280;19047;44.782;20.468;2022-08-24T19:16:11;100992.50;;;22.63;82.08
30347;BME280;19047;44.782;20.468;2022-08-24T19:19:28;100968.59;;;22.46;82.11
30347;BME280;19047;44.782;20.468;2022-08-24T19:23:05;100973.97;;;22.44;82.08
30347;BME280;19047;44.782;20.468;2022-08-24T19:26:23;100984.50;;;22.52;82.65
30347;BME280;19047;44.782;20.468;2022-08-24T19:29:57;100987.84;;;22.51;82.84
30347;BME280;19047;44.782;20.468;2022-08-24T19:33:22;100981.25;;;22.45;83.03
30347;BME280;19047;44.782;20.468;2022-08-24T19:36:54;100962.38;;;22.33;83.17
30347;BME280;19047;44.782;20.468;2022-08-24T19:40:12;100969.94;;;22.36;83.38
30347;BME280;19047;44.782;20.468;2022-08-24T19:43:53;100976.22;;;22.40;83.29
30347;BME280;19047;44.782;20.468;2022-08-24T19:47:29;100983.22;;;22.39;83.41
30347;BME280;19047;44.782;20.468;2022-08-24T19:51:03;100985.47;;;22.35;83.91
30347;BME280;19047;44.782;20.468;2022-08-24T19:54:21;100979.16;;;22.31;83.97
30347;BME280;19047;44.782;20.468;2022-08-24T19:57:54;100989.78;;;22.30;83.87
30347;BME280;19047;44.782;20.468;2022-08-24T20:01:33;100995.97;;;22.29;84.32
30347;BME280;19047;44.782;20.468;2022-08-24T20:05:05;100968.41;;;22.11;84.05
30347;BME280;19047;44.782;20.468;2022-08-24T20:08:22;100984.47;;;22.23;84.54
30347;BME280;19047;44.782;20.468;2022-08-24T20:11:53;100981.78;;;22.19;84.35
30347;BME280;19047;44.782;20.468;2022-08-24T20:15:11;100976.56;;;22.18;84.56
30347;BME280;19047;44.782;20.468;2022-08-24T20:18:41;100966.97;;;22.15;84.70
30347;BME280;19047;44.782;20.468;2022-08-24T20:21:58;100962.72;;;22.11;84.72
30347;BME280;19047;44.782;20.468;2022-08-24T20:25:29;100945.03;;;21.98;84.76
30347;BME280;19047;44.782;20.468;2022-08-24T20:28:50;100944.59;;;21.99;84.76
30347;BME280;19047;44.782;20.468;2022-08-24T20:32:21;100954.53;;;22.04;85.25
30347;BME280;19047;44.782;20.468;2022-08-24T20:35:38;100965.47;;;22.05;85.20
30347;BME280;19047;44.782;20.468;2022-08-24T20:39:10;100963.78;;;21.90;85.26
30347;BME280;19047;44.782;20.468;2022-08-24T20:42:28;100991.91;;;21.97;85.27
30347;BME280;19047;44.782;20.468;2022-08-24T20:45:59;100982.56;;;21.96;85.35
30347;BME280;19047;44.782;20.468;2022-08-24T20:49:21;100993.69;;;21.94;85.25
30347;BME280;19047;44.782;20.468;2022-08-24T20:52:53;100995.44;;;21.92;85.47
30347;BME280;19047;44.782;20.468;2022-08-24T20:56:19;100999.16;;;21.83;85.35
30347;BME280;19047;44.782;20.468;2022-08-24T20:59:57;101000.53;;;21.88;85.65
30347;BME280;19047;44.782;20.468;2022-08-24T21:03:14;100976.75;;;21.67;85.41
30347;BME280;19047;44.782;20.468;2022-08-24T21:06:45;100978.34;;;21.68;85.74
30347;BME280;19047;44.782;20.468;2022-08-24T21:10:03;100999.63;;;21.81;85.80
30347;BME280;19047;44.782;20.468;2022-08-24T21:13:34;100999.31;;;21.79;85.83
30347;BME280;19047;44.782;20.468;2022-08-24T21:16:52;100985.72;;;21.74;85.77
30347;BME280;19047;44.782;20.468;2022-08-24T21:20:24;100987.84;;;21.65;85.86
30347;BME280;19047;44.782;20.468;2022-08-24T21:23:41;100989.88;;;21.73;86.12
30347;BME280;19047;44.782;20.468;2022-08-24T21:27:11;100972.78;;;21.73;86.07
30347;BME280;19047;44.782;20.468;2022-08-24T21:30:29;100984.34;;;21.70;85.96
30347;BME280;19047;44.782;20.468;2022-08-24T21:34:00;100960.22;;;21.56;86.17
30347;BME280;19047;44.782;20.468;2022-08-24T21:37:38;100970.28;;;21.66;86.29
30347;BME280;19047;44.782;20.468;2022-08-24T21:41:12;100978.50;;;21.64;86.21
30347;BME280;19047;44.782;20.468;2022-08-24T21:44:29;100977.72;;;21.64;86.33
30347;BME280;19047;44.782;20.468;2022-08-24T21:48:01;100966.84;;;21.62;86.29
30347;BME280;19047;44.782;20.468;2022-08-24T21:51:18;100957.38;;;21.56;86.26